Time,TemperatureF,DewpointF,PressureIn,WindDirection,WindDirectionDegrees,WindSpeedMPH,WindSpeedGustMPH,Humidity,HourlyPrecipIn,Conditions,Clouds,dailyrainin,SoftwareType,DateUTC
2013-08-16 00:03:00,58.7,56.0,30.14,WNW,289,0.0,0.0,90,0.00,,,0.00,weatherlink.com 1.10,2013-08-16 05:03:00,
2013-08-16 00:33:00,58.4,56.0,30.14,WNW,289,0.0,0.0,90,0.00,,,0.00,weatherlink.com 1.10,2013-08-16 05:33:00,
2013-08-16 00:48:00,58.2,56.0,30.14,WNW,289,0.0,0.0,91,0.00,,,0.00,weatherlink.com 1.10,2013-08-16 05:48:00,
2013-08-16 01:03:00,58.1,56.0,30.13,WNW,289,0.0,0.0,91,0.00,,,0.00,weatherlink.com 1.10,2013-08-16 06:03:00,
2013-08-16 01:18:00,57.7,55.0,30.13,WNW,289,0.0,1.0,90,0.00,,,0.00,weatherlink.com 1.10,2013-08-16 06:18:00,
2013-08-16 01:33:00,57.3,55.0,30.13,WNW,289,0.0,0.0,90,0.00,,,0.00,weatherlink.com 1.10,2013-08-16 06:33:00,
2013-08-16 01:48:00,56.9,54.0,30.13,WNW,289,0.0,0.0,90,0.00,,,0.00,weatherlink.com 1.10,2013-08-16 06:48:00,
2013-08-16 02:03:00,56.6,54.0,30.13,WNW,289,0.0,0.0,91,0.00,,,0.00,weatherlink.com 1.10,2013-08-16 07:03:00,
2013-08-16 02:18:00,56.3,54.0,30.13,WNW,289,0.0,0.0,91,0.00,,,0.00,weatherlink.com 1.10,2013-08-16 07:18:00,
2013-08-16 02:33:00,55.9,53.0,30.13,WNW,289,0.0,0.0,91,0.00,,,0.00,weatherlink.com 1.10,2013-08-16 07:33:00,
2013-08-16 02:48:00,55.6,53.0,30.13,WNW,289,0.0,0.0,92,0.00,,,0.00,weatherlink.com 1.10,2013-08-16 07:48:00,
2013-08-16 03:03:00,55.3,53.0,30.13,WNW,289,0.0,0.0,93,0.00,,,0.00,weatherlink.com 1.10,2013-08-16 08:03:00,
2013-08-16 03:18:00,55.1,53.0,30.13,WNW,289,0.0,0.0,93,0.00,,,0.00,weatherlink.com 1.10,2013-08-16 08:18:00,
2013-08-16 03:33:00,54.9,53.0,30.12,WNW,289,0.0,0.0,93,0.00,,,0.00,weatherlink.com 1.10,2013-08-16 08:33:00,
2013-08-16 03:48:00,54.5,53.0,30.13,WNW,288,0.0,0.0,94,0.00,,,0.00,weatherlink.com 1.10,2013-08-16 08:48:00,
2013-08-16 04:03:00,54.3,53.0,30.13,WNW,288,0.0,0.0,94,0.00,,,0.00,weatherlink.com 1.10,2013-08-16 09:03:00,
2013-08-16 04:18:00,54.2,53.0,30.13,WNW,288,0.0,0.0,94,0.00,,,0.00,weatherlink.com 1.10,2013-08-16 09:18:00,
2013-08-16 04:33:00,54.0,52.0,30.13,WNW,288,0.0,0.0,94,0.00,,,0.00,weatherlink.com 1.10,2013-08-16 09:33:00,
2013-08-16 04:48:00,53.9,53.0,30.14,WNW,288,0.0,0.0,95,0.00,,,0.00,weatherlink.com 1.10,2013-08-16 09:48:00,
2013-08-16 05:03:00,54.0,53.0,30.14,WNW,288,0.0,0.0,95,0.00,,,0.00,weatherlink.com 1.10,2013-08-16 10:03:00,
2013-08-16 05:18:00,54.1,53.0,30.14,WNW,288,0.0,0.0,95,0.00,,,0.00,weatherlink.com 1.10,2013-08-16 10:18:00,
2013-08-16 05:33:00,54.2,53.0,30.14,WNW,288,0.0,0.0,95,0.00,,,0.00,weatherlink.com 1.10,2013-08-16 10:33:00,
2013-08-16 05:48:00,54.2,53.0,30.14,WNW,288,0.0,0.0,95,0.00,,,0.00,weatherlink.com 1.10,2013-08-16 10:48:00,
2013-08-16 06:03:00,54.1,53.0,30.15,WNW,288,0.0,0.0,95,0.00,,,0.00,weatherlink.com 1.10,2013-08-16 11:03:00,
2013-08-16 06:18:00,54.0,53.0,30.15,WNW,288,0.0,0.0,95,0.00,,,0.00,weatherlink.com 1.10,2013-08-16 11:18:00,
2013-08-16 06:33:00,54.1,53.0,30.15,WNW,288,0.0,0.0,95,0.00,,,0.00,weatherlink.com 1.10,2013-08-16 11:33:00,
2013-08-16 06:48:00,54.2,53.0,30.15,WNW,288,0.0,0.0,95,0.00,,,0.00,weatherlink.com 1.10,2013-08-16 11:48:00,
2013-08-16 07:03:00,54.6,53.0,30.15,WNW,288,0.0,0.0,95,0.00,,,0.00,weatherlink.com 1.10,2013-08-16 12:03:00,
2013-08-16 07:18:00,55.1,54.0,30.16,WNW,288,0.0,0.0,95,0.00,,,0.00,weatherlink.com 1.10,2013-08-16 12:18:00,
2013-08-16 07:33:00,55.9,55.0,30.16,WNW,288,0.0,1.0,95,0.00,,,0.00,weatherlink.com 1.10,2013-08-16 12:33:00,
2013-08-16 07:48:00,56.9,56.0,30.16,WNW,288,0.0,0.0,95,0.00,,,0.00,weatherlink.com 1.10,2013-08-16 12:48:00,
2013-08-16 08:04:00,58.6,57.0,30.16,NNW,336,1.0,4.0,94,0.00,,,0.00,weatherlink.com 1.10,2013-08-16 13:04:00,
2013-08-16 08:19:00,60.4,58.0,30.17,NNW,335,1.0,3.0,91,0.00,,,0.00,weatherlink.com 1.10,2013-08-16 13:19:00,
2013-08-16 08:34:00,61.1,58.0,30.17,NNW,335,0.0,1.0,90,0.00,,,0.00,weatherlink.com 1.10,2013-08-16 13:34:00,
2013-08-16 08:49:00,61.3,58.0,30.17,NNW,335,0.0,1.0,90,0.00,,,0.00,weatherlink.com 1.10,2013-08-16 13:49:00,
2013-08-16 09:04:00,62.9,60.0,30.17,NNW,335,1.0,1.0,89,0.00,,,0.00,weatherlink.com 1.10,2013-08-16 14:04:00,
2013-08-16 09:19:00,64.5,60.0,30.16,North,360,0.0,2.0,86,0.00,,,0.00,weatherlink.com 1.10,2013-08-16 14:19:00,
2013-08-16 09:34:00,65.9,60.0,30.17,North,5,1.0,2.0,82,0.00,,,0.00,weatherlink.com 1.10,2013-08-16 14:34:00,
2013-08-16 09:49:00,67.1,60.0,30.17,ENE,67,1.0,2.0,79,0.00,,,0.00,weatherlink.com 1.10,2013-08-16 14:49:00,
2013-08-16 10:04:00,68.3,61.0,30.17,East,86,0.0,2.0,78,0.00,,,0.00,weatherlink.com 1.10,2013-08-16 15:04:00,
2013-08-16 10:19:00,69.2,61.0,30.17,North,360,1.0,2.0,75,0.00,,,0.00,weatherlink.com 1.10,2013-08-16 15:19:00,
2013-08-16 10:34:00,70.0,61.0,30.17,NE,34,1.0,3.0,72,0.00,,,0.00,weatherlink.com 1.10,2013-08-16 15:34:00,
2013-08-16 10:49:00,71.2,61.0,30.16,NNE,17,0.0,2.0,69,0.00,,,0.00,weatherlink.com 1.10,2013-08-16 15:49:00,
2013-08-16 11:04:00,72.4,61.0,30.16,NNE,15,0.0,2.0,68,0.00,,,0.00,weatherlink.com 1.10,2013-08-16 16:04:00,
2013-08-16 11:19:00,73.4,60.0,30.17,NNW,340,3.0,4.0,63,0.00,,,0.00,weatherlink.com 1.10,2013-08-16 16:19:00,
2013-08-16 11:34:00,74.7,60.0,30.17,NNW,334,1.0,3.0,61,0.00,,,0.00,weatherlink.com 1.10,2013-08-16 16:34:00,
2013-08-16 11:49:00,75.9,60.0,30.16,NE,41,1.0,3.0,59,0.00,,,0.00,weatherlink.com 1.10,2013-08-16 16:49:00,
2013-08-16 12:04:00,76.6,60.0,30.16,NNE,32,0.0,2.0,57,0.00,,,0.00,weatherlink.com 1.10,2013-08-16 17:04:00,
2013-08-16 12:19:00,77.5,59.0,30.16,SE,139,1.0,3.0,54,0.00,,,0.00,weatherlink.com 1.10,2013-08-16 17:19:00,
2013-08-16 12:35:00,76.3,60.0,30.16,NNE,29,1.0,2.0,57,0.00,,,0.00,weatherlink.com 1.10,2013-08-16 17:35:00,
2013-08-16 12:50:00,76.3,59.0,30.16,NW,322,2.0,3.0,56,0.00,,,0.00,weatherlink.com 1.10,2013-08-16 17:50:00,
2013-08-16 13:05:00,77.6,61.0,30.16,NE,44,1.0,4.0,56,0.00,,,0.00,weatherlink.com 1.10,2013-08-16 18:05:00,
2013-08-16 13:20:00,78.4,59.0,30.16,ENE,69,0.0,2.0,51,0.00,,,0.00,weatherlink.com 1.10,2013-08-16 18:20:00,
2013-08-16 13:35:00,78.7,60.0,30.15,WNW,293,0.0,3.0,52,0.00,,,0.00,weatherlink.com 1.10,2013-08-16 18:35:00,
2013-08-16 13:50:00,79.5,60.0,30.15,ENE,67,2.0,3.0,52,0.00,,,0.00,weatherlink.com 1.10,2013-08-16 18:50:00,
2013-08-16 14:05:00,80.0,58.0,30.15,East,84,1.0,3.0,47,0.00,,,0.00,weatherlink.com 1.10,2013-08-16 19:05:00,
2013-08-16 14:20:00,78.6,57.0,30.14,ENE,66,2.0,2.0,48,0.00,,,0.00,weatherlink.com 1.10,2013-08-16 19:20:00,
2013-08-16 14:35:00,79.2,58.0,30.14,ENE,74,0.0,3.0,48,0.00,,,0.00,weatherlink.com 1.10,2013-08-16 19:35:00,
2013-08-16 14:50:00,78.1,58.0,30.14,East,91,0.0,1.0,50,0.00,,,0.00,weatherlink.com 1.10,2013-08-16 19:50:00,
2013-08-16 15:05:00,77.4,55.0,30.13,NNW,338,2.0,4.0,46,0.00,,,0.00,weatherlink.com 1.10,2013-08-16 20:05:00,
2013-08-16 15:20:00,78.5,58.0,30.13,North,351,0.0,3.0,49,0.00,,,0.00,weatherlink.com 1.10,2013-08-16 20:20:00,
2013-08-16 15:35:00,78.3,58.0,30.13,NNE,17,0.0,2.0,50,0.00,,,0.00,weatherlink.com 1.10,2013-08-16 20:35:00,
2013-08-16 15:50:00,78.6,55.0,30.13,NNE,28,0.0,2.0,45,0.00,,,0.00,weatherlink.com 1.10,2013-08-16 20:50:00,
2013-08-16 16:05:00,78.8,58.0,30.13,NNE,25,0.0,2.0,49,0.00,,,0.00,weatherlink.com 1.10,2013-08-16 21:05:00,
2013-08-16 16:20:00,78.3,59.0,30.13,NNE,20,0.0,1.0,52,0.00,,,0.00,weatherlink.com 1.10,2013-08-16 21:20:00,
2013-08-16 16:35:00,77.7,60.0,30.13,NNE,20,0.0,0.0,55,0.00,,,0.00,weatherlink.com 1.10,2013-08-16 21:35:00,
2013-08-16 16:50:00,78.2,57.0,30.13,NNE,20,0.0,2.0,48,0.00,,,0.00,weatherlink.com 1.10,2013-08-16 21:50:00,
2013-08-16 17:05:00,78.7,58.0,30.13,North,11,0.0,2.0,49,0.00,,,0.00,weatherlink.com 1.10,2013-08-16 22:05:00,
2013-08-16 17:20:00,77.8,59.0,30.13,NE,35,0.0,3.0,53,0.00,,,0.00,weatherlink.com 1.10,2013-08-16 22:20:00,
2013-08-16 17:35:00,77.0,60.0,30.14,NE,35,0.0,1.0,57,0.00,,,0.00,weatherlink.com 1.10,2013-08-16 22:35:00,
2013-08-16 17:50:00,77.2,62.0,30.13,NE,35,0.0,1.0,60,0.00,,,0.00,weatherlink.com 1.10,2013-08-16 22:50:00,
2013-08-16 18:05:00,78.5,62.0,30.13,NE,35,1.0,2.0,58,0.00,,,0.00,weatherlink.com 1.10,2013-08-16 23:05:00,
2013-08-16 18:20:00,78.5,60.0,30.13,NE,38,0.0,2.0,53,0.00,,,0.00,weatherlink.com 1.10,2013-08-16 23:20:00,
2013-08-16 18:35:00,77.8,60.0,30.13,NE,38,0.0,2.0,55,0.00,,,0.00,weatherlink.com 1.10,2013-08-16 23:35:00,
2013-08-16 18:50:00,77.5,59.0,30.14,NE,38,1.0,2.0,54,0.00,,,0.00,weatherlink.com 1.10,2013-08-16 23:50:00,
2013-08-16 19:05:00,75.8,59.0,30.14,NE,38,0.0,2.0,57,0.00,,,0.00,weatherlink.com 1.10,2013-08-17 00:05:00,
2013-08-16 19:20:00,74.0,58.0,30.14,NE,38,0.0,2.0,58,0.00,,,0.00,weatherlink.com 1.10,2013-08-17 00:20:00,
2013-08-16 19:35:00,72.7,59.0,30.14,NE,38,0.0,0.0,63,0.00,,,0.00,weatherlink.com 1.10,2013-08-17 00:35:00,
2013-08-16 19:50:00,71.2,60.0,30.15,NE,38,0.0,0.0,67,0.00,,,0.00,weatherlink.com 1.10,2013-08-17 00:50:00,
2013-08-16 20:05:00,70.0,59.0,30.15,NE,38,0.0,0.0,69,0.00,,,0.00,weatherlink.com 1.10,2013-08-17 01:05:00,
2013-08-16 20:20:00,68.7,59.0,30.15,NE,38,0.0,0.0,71,0.00,,,0.00,weatherlink.com 1.10,2013-08-17 01:20:00,
2013-08-16 20:35:00,67.3,59.0,30.16,NE,39,0.0,0.0,74,0.00,,,0.00,weatherlink.com 1.10,2013-08-17 01:35:00,
2013-08-16 20:50:00,66.3,57.0,30.16,NE,39,0.0,0.0,73,0.00,,,0.00,weatherlink.com 1.10,2013-08-17 01:50:00,
2013-08-16 21:05:00,65.5,57.0,30.17,NE,39,0.0,0.0,74,0.00,,,0.00,weatherlink.com 1.10,2013-08-17 02:05:00,
2013-08-16 21:20:00,64.8,57.0,30.17,NE,38,0.0,0.0,75,0.00,,,0.00,weatherlink.com 1.10,2013-08-17 02:20:00,
2013-08-16 21:35:00,64.4,56.0,30.18,NE,39,0.0,0.0,75,0.00,,,0.00,weatherlink.com 1.10,2013-08-17 02:35:00,
2013-08-16 21:50:00,64.2,56.0,30.18,NE,39,0.0,1.0,74,0.00,,,0.00,weatherlink.com 1.10,2013-08-17 02:50:00,
2013-08-16 22:05:00,64.2,56.0,30.18,NE,39,0.0,1.0,74,0.00,,,0.00,weatherlink.com 1.10,2013-08-17 03:05:00,
2013-08-16 22:20:00,63.7,56.0,30.18,NE,39,0.0,0.0,76,0.00,,,0.00,weatherlink.com 1.10,2013-08-17 03:20:00,
2013-08-16 22:35:00,62.6,56.0,30.18,NE,39,0.0,0.0,79,0.00,,,0.00,weatherlink.com 1.10,2013-08-17 03:35:00,
2013-08-16 22:50:00,61.9,56.0,30.18,NE,39,0.0,0.0,81,0.00,,,0.00,weatherlink.com 1.10,2013-08-17 03:50:00,
2013-08-16 23:05:00,61.2,56.0,30.18,NE,38,0.0,0.0,82,0.00,,,0.00,weatherlink.com 1.10,2013-08-17 04:05:00,
2013-08-16 23:20:00,60.5,56.0,30.18,NE,39,0.0,0.0,84,0.00,,,0.00,weatherlink.com 1.10,2013-08-17 04:20:00,
2013-08-16 23:35:00,60.0,55.0,30.18,NE,38,0.0,0.0,84,0.00,,,0.00,weatherlink.com 1.10,2013-08-17 04:35:00,
2013-08-16 23:50:00,59.5,55.0,30.18,NE,39,0.0,0.0,86,0.00,,,0.00,weatherlink.com 1.10,2013-08-17 04:50:00,